Time;durP1;ratioP1;P1;durP2;ratioP2;P2;SDS_P1;SDS_P2;PMS_P1;PMS_P2;Temp;Humidity;BMP_temperature;BMP_pressure;BME280_temperature;BME280_humidity;BME280_pressure;Samples;Min_cycle;Max_cycle;Signal;HPM_P1;HPM_P2
2023/04/27 00:01:11;;;;;;;;;;;21.90;56.50;;;;;;1590178;73;803;-60
2023/04/27 00:03:12;;;;;;;;;;;21.90;56.80;;;;;;1589149;73;747;-60
2023/04/27 00:05:15;;;;;;;;;;;21.90;56.40;;;;;;1590198;73;1241;-61
2023/04/27 00:07:16;;;;;;;;;;;21.90;56.70;;;;;;1584479;73;754;-62
2023/04/27 00:09:18;;;;;;;;;;;21.90;56.60;;;;;;1575425;73;806;-61
2023/04/27 00:11:21;;;;;;;;;;;21.90;56.50;;;;;;1580682;73;730;-61
2023/04/27 00:13:22;;;;;;;;;;;21.90;56.00;;;;;;1590566;73;1926;-60
2023/04/27 00:15:24;;;;;;;;;;;22.00;56.00;;;;;;1595568;73;1173;-60
2023/04/27 00:17:26;;;;;;;;;;;22.00;55.70;;;;;;1594267;73;811;-60
2023/04/27 00:19:29;;;;;;;;;;;22.00;55.50;;;;;;1581371;73;781;-60
2023/04/27 00:21:31;;;;;;;;;;;22.00;55.50;;;;;;1580965;74;782;-60
2023/04/27 00:23:33;;;;;;;;;;;22.10;55.70;;;;;;1586016;73;760;-59
2023/04/27 00:25:35;;;;;;;;;;;22.10;55.40;;;;;;1588770;73;1147;-60
2023/04/27 00:27:36;;;;;;;;;;;22.20;55.20;;;;;;1586475;73;1303;-59
2023/04/27 00:29:45;;;;;;;;;;;22.20;55.10;;;;;;1578132;73;750;-60
2023/04/27 00:31:43;;;;;;;;;;;22.20;54.90;;;;;;1583959;73;1938;-60
2023/04/27 00:33:45;;;;;;;;;;;22.20;54.80;;;;;;1592355;73;762;-60
2023/04/27 00:35:47;;;;;;;;;;;22.20;54.70;;;;;;1575347;73;1170;-60
2023/04/27 00:37:49;;;;;;;;;;;22.30;54.70;;;;;;1589043;73;773;-62
2023/04/27 00:39:51;;;;;;;;;;;22.30;54.70;;;;;;1586734;73;801;-58
2023/04/27 00:41:53;;;;;;;;;;;22.40;54.50;;;;;;1590893;73;1453;-59
2023/04/27 00:43:55;;;;;;;;;;;22.30;54.40;;;;;;1594647;73;795;-59
2023/04/27 00:45:57;;;;;;;;;;;22.30;54.40;;;;;;1581478;73;1119;-59
2023/04/27 00:47:58;;;;;;;;;;;22.30;54.50;;;;;;1583958;73;788;-60
2023/04/27 00:50:00;;;;;;;;;;;22.30;54.60;;;;;;1592951;73;668;-59
2023/04/27 00:52:02;;;;;;;;;;;22.40;54.40;;;;;;1587391;73;1933;-59
2023/04/27 00:54:04;;;;;;;;;;;22.30;54.40;;;;;;1584484;73;755;-59
2023/04/27 00:56:06;;;;;;;;;;;22.30;54.40;;;;;;1592269;74;1622;-59
2023/04/27 00:58:08;;;;;;;;;;;22.40;54.40;;;;;;1589663;73;751;-59
2023/04/27 01:00:10;;;;;;;;;;;22.40;54.30;;;;;;1582178;73;795;-60
2023/04/27 01:02:12;;;;;;;;;;;22.30;54.20;;;;;;1584681;73;760;-59
2023/04/27 01:04:15;;;;;;;;;;;22.30;54.20;;;;;;1593628;73;731;-60
2023/04/27 01:06:17;;;;;;;;;;;22.30;54.20;;;;;;1589742;73;1206;-59
2023/04/27 01:08:19;;;;;;;;;;;22.30;54.50;;;;;;1582055;73;1425;-59
2023/04/27 01:10:21;;;;;;;;;;;22.20;54.80;;;;;;1577656;73;789;-59
2023/04/27 01:12:23;;;;;;;;;;;22.20;54.90;;;;;;1585306;73;1941;-59
2023/04/27 01:14:25;;;;;;;;;;;22.10;55.00;;;;;;1587788;73;752;-58
2023/04/27 01:16:27;;;;;;;;;;;22.20;54.90;;;;;;1579915;73;1167;-59
2023/04/27 01:18:29;;;;;;;;;;;22.20;54.90;;;;;;1581616;73;715;-59
2023/04/27 01:20:31;;;;;;;;;;;22.20;55.00;;;;;;1591967;73;703;-61
2023/04/27 01:22:33;;;;;;;;;;;22.20;55.00;;;;;;1591517;73;1420;-60
2023/04/27 01:24:35;;;;;;;;;;;22.10;54.80;;;;;;1586045;73;1158;-59
2023/04/27 01:26:37;;;;;;;;;;;22.10;55.00;;;;;;1585000;73;779;-60
2023/04/27 01:28:39;;;;;;;;;;;22.20;54.80;;;;;;1584181;73;765;-59
2023/04/27 01:30:40;;;;;;;;;;;22.20;54.90;;;;;;1592822;73;655;-59
2023/04/27 01:32:42;;;;;;;;;;;22.20;54.80;;;;;;1595493;73;1942;-60
2023/04/27 01:34:44;;;;;;;;;;;22.20;54.80;;;;;;1597748;73;1140;-60
2023/04/27 01:36:46;;;;;;;;;;;22.20;54.80;;;;;;1576179;73;1333;-59
2023/04/27 01:38:48;;;;;;;;;;;22.20;54.70;;;;;;1587107;73;783;-59
2023/04/27 01:40:50;;;;;;;;;;;22.20;54.60;;;;;;1586594;73;801;-59
2023/04/27 01:42:52;;;;;;;;;;;22.20;54.70;;;;;;1586439;73;761;-60
2023/04/27 01:44:54;;;;;;;;;;;22.20;54.70;;;;;;1597172;73;1170;-60
2023/04/27 01:46:55;;;;;;;;;;;22.20;54.80;;;;;;1591823;73;775;-60
2023/04/27 01:48:57;;;;;;;;;;;22.20;54.70;;;;;;1593486;73;772;-60
2023/04/27 01:50:59;;;;;;;;;;;22.10;54.80;;;;;;1589168;73;1416;-59
2023/04/27 01:53:02;;;;;;;;;;;22.10;54.90;;;;;;1569183;73;1935;-59
2023/04/27 01:55:04;;;;;;;;;;;22.10;55.00;;;;;;1581748;73;1175;-59
2023/04/27 01:57:06;;;;;;;;;;;22.10;55.00;;;;;;1595846;74;616;-59
2023/04/27 01:59:08;;;;;;;;;;;22.10;55.00;;;;;;1594285;73;687;-59
2023/04/27 02:01:10;;;;;;;;;;;22.10;54.90;;;;;;1583316;73;800;-59
2023/04/27 02:03:12;;;;;;;;;;;22.10;54.80;;;;;;1591465;73;739;-59
2023/04/27 02:05:14;;;;;;;;;;;22.10;54.70;;;;;;1587336;73;1449;-59
2023/04/27 02:07:15;;;;;;;;;;;22.20;54.70;;;;;;1591415;73;798;-59
2023/04/27 02:09:17;;;;;;;;;;;22.10;54.70;;;;;;1583563;74;799;-59
2023/04/27 02:11:19;;;;;;;;;;;22.10;54.80;;;;;;1581554;73;798;-59
2023/04/27 02:13:21;;;;;;;;;;;22.10;54.90;;;;;;1593670;73;1937;-59
2023/04/27 02:15:23;;;;;;;;;;;22.10;54.80;;;;;;1581433;73;1242;-60
2023/04/27 02:17:25;;;;;;;;;;;22.20;54.90;;;;;;1586579;74;763;-60
2023/04/27 02:19:27;;;;;;;;;;;22.10;55.00;;;;;;1592651;73;1432;-59
2023/04/27 02:21:29;;;;;;;;;;;22.10;55.20;;;;;;1587196;73;774;-60
2023/04/27 02:23:31;;;;;;;;;;;22.10;55.20;;;;;;1585412;73;693;-59
2023/04/27 02:25:35;;;;;;;;;;;22.00;55.20;;;;;;1577253;73;1168;-59
2023/04/27 02:27:38;;;;;;;;;;;22.10;55.20;;;;;;1583943;73;786;-59
2023/04/27 02:29:40;;;;;;;;;;;22.10;55.20;;;;;;1581579;73;1213;-58
2023/04/27 02:31:42;;;;;;;;;;;22.00;55.10;;;;;;1588553;73;770;-58
2023/04/27 02:33:44;;;;;;;;;;;22.10;55.20;;;;;;1590272;73;1943;-59
2023/04/27 02:35:46;;;;;;;;;;;22.10;55.30;;;;;;1582977;73;1178;-59
2023/04/27 02:37:48;;;;;;;;;;;22.00;55.20;;;;;;1572014;73;746;-59
2023/04/27 02:39:49;;;;;;;;;;;22.00;55.20;;;;;;1585447;73;764;-59
2023/04/27 02:41:51;;;;;;;;;;;22.00;55.30;;;;;;1600336;73;767;-58
2023/04/27 02:43:53;;;;;;;;;;;22.00;55.30;;;;;;1585966;73;700;-59
2023/04/27 02:45:55;;;;;;;;;;;22.00;55.30;;;;;;1587674;73;1167;-59
2023/04/27 02:47:57;;;;;;;;;;;22.00;55.20;;;;;;1590788;73;1444;-59
2023/04/27 02:49:59;;;;;;;;;;;22.00;55.50;;;;;;1580443;73;788;-58
2023/04/27 02:52:02;;;;;;;;;;;22.00;55.40;;;;;;1578071;73;768;-59
2023/04/27 02:54:04;;;;;;;;;;;22.00;55.30;;;;;;1588522;73;1929;-59
2023/04/27 02:56:06;;;;;;;;;;;22.00;55.20;;;;;;1591120;73;1147;-59
2023/04/27 02:58:07;;;;;;;;;;;22.00;55.20;;;;;;1581210;73;758;-60
2023/04/27 03:00:10;;;;;;;;;;;22.00;55.30;;;;;;1578837;73;753;-59
2023/04/27 03:02:12;;;;;;;;;;;21.90;55.30;;;;;;1595913;73;1444;-60
2023/04/27 03:04:14;;;;;;;;;;;22.00;55.40;;;;;;1591589;73;774;-60
2023/04/27 03:06:15;;;;;;;;;;;22.00;55.10;;;;;;1592791;73;1131;-59
2023/04/27 03:08:17;;;;;;;;;;;22.00;55.20;;;;;;1580098;73;811;-59
2023/04/27 03:10:19;;;;;;;;;;;22.00;55.10;;;;;;1588166;73;753;-60
2023/04/27 03:12:21;;;;;;;;;;;22.10;55.20;;;;;;1581539;73;772;-59
2023/04/27 03:14:23;;;;;;;;;;;22.10;55.00;;;;;;1582093;73;1942;-60
2023/04/27 03:16:25;;;;;;;;;;;22.10;54.90;;;;;;1583732;73;1587;-59
2023/04/27 03:18:27;;;;;;;;;;;22.00;54.80;;;;;;1580535;73;798;-59
2023/04/27 03:20:29;;;;;;;;;;;22.10;54.90;;;;;;1571447;73;790;-59
2023/04/27 03:22:30;;;;;;;;;;;22.10;54.80;;;;;;1579477;73;659;-58
2023/04/27 03:24:33;;;;;;;;;;;22.10;54.70;;;;;;1574210;73;642;-59
2023/04/27 03:26:34;;;;;;;;;;;22.10;54.60;;;;;;1578586;73;1205;-58
2023/04/27 03:28:37;;;;;;;;;;;22.10;54.60;;;;;;1575391;73;775;-58
2023/04/27 03:30:40;;;;;;;;;;;22.10;54.60;;;;;;1581034;73;1469;-58
2023/04/27 03:32:41;;;;;;;;;;;22.10;54.60;;;;;;1580555;73;786;-58
2023/04/27 03:34:43;;;;;;;;;;;22.10;54.50;;;;;;1575422;73;1936;-58
2023/04/27 03:36:45;;;;;;;;;;;22.20;54.40;;;;;;1578016;73;628;-58
2023/04/27 03:38:47;;;;;;;;;;;22.20;54.40;;;;;;1596490;73;757;-58
2023/04/27 03:40:49;;;;;;;;;;;22.20;54.40;;;;;;1589878;73;781;-59
2023/04/27 03:42:51;;;;;;;;;;;22.10;54.50;;;;;;1595002;73;736;-58
2023/04/27 03:44:53;;;;;;;;;;;22.20;54.40;;;;;;1589271;73;1328;-59
2023/04/27 03:46:55;;;;;;;;;;;22.10;54.40;;;;;;1598662;73;774;-59
2023/04/27 03:48:56;;;;;;;;;;;22.20;54.30;;;;;;1570887;73;809;-60
2023/04/27 03:50:59;;;;;;;;;;;22.20;54.30;;;;;;1591140;73;749;-61
2023/04/27 03:53:01;;;;;;;;;;;22.20;54.40;;;;;;1578156;73;1930;-60
2023/04/27 03:55:04;;;;;;;;;;;22.20;54.50;;;;;;1581639;73;1141;-62
2023/04/27 03:57:06;;;;;;;;;;;22.20;54.60;;;;;;1583457;73;1405;-60
2023/04/27 03:59:08;;;;;;;;;;;22.10;54.70;;;;;;1577024;73;740;-59
2023/04/27 04:01:10;;;;;;;;;;;22.10;54.70;;;;;;1581047;73;733;-60
2023/04/27 04:03:11;;;;;;;;;;;22.00;55.10;;;;;;1586457;73;663;-58
2023/04/27 04:05:14;;;;;;;;;;;22.00;55.10;;;;;;1589653;73;1162;-58
2023/04/27 04:07:15;;;;;;;;;;;22.00;55.40;;;;;;1591654;73;697;-58
2023/04/27 04:09:17;;;;;;;;;;;22.00;55.30;;;;;;1597232;73;766;-59
2023/04/27 04:11:20;;;;;;;;;;;22.00;55.40;;;;;;1585401;73;1427;-58
2023/04/27 04:13:22;;;;;;;;;;;21.90;55.40;;;;;;1588603;73;1982;-58
2023/04/27 04:15:23;;;;;;;;;;;22.00;55.30;;;;;;1583290;73;1247;-58
2023/04/27 04:17:25;;;;;;;;;;;21.90;55.20;;;;;;1577814;73;818;-58
2023/04/27 04:19:27;;;;;;;;;;;21.90;55.10;;;;;;1576454;73;766;-59
2023/04/27 04:21:30;;;;;;;;;;;22.00;55.00;;;;;;1581193;74;671;-59
2023/04/27 04:23:32;;;;;;;;;;;21.90;55.00;;;;;;1578545;73;630;-59
2023/04/27 04:25:35;;;;;;;;;;;22.00;55.00;;;;;;1586649;73;1448;-58
2023/04/27 04:27:37;;;;;;;;;;;22.10;55.20;;;;;;1589674;74;763;-59
2023/04/27 04:29:39;;;;;;;;;;;21.90;55.20;;;;;;1579240;73;712;-59
2023/04/27 04:31:41;;;;;;;;;;;21.90;55.40;;;;;;1581655;73;801;-59
2023/04/27 04:33:42;;;;;;;;;;;21.90;55.40;;;;;;1588847;73;1942;-58
2023/04/27 04:35:45;;;;;;;;;;;21.90;55.60;;;;;;1584576;73;1147;-59
2023/04/27 04:37:46;;;;;;;;;;;21.80;55.60;;;;;;1577254;73;782;-60
2023/04/27 04:39:48;;;;;;;;;;;21.80;55.90;;;;;;1585941;73;1455;-59
2023/04/27 04:41:51;;;;;;;;;;;21.80;56.00;;;;;;1590561;73;947;-59
2023/04/27 04:43:53;;;;;;;;;;;21.70;56.00;;;;;;1593097;73;769;-58
2023/04/27 04:45:55;;;;;;;;;;;21.80;56.20;;;;;;1590336;73;1146;-59
2023/04/27 04:47:57;;;;;;;;;;;21.80;56.20;;;;;;1583948;73;756;-59
2023/04/27 04:49:59;;;;;;;;;;;21.80;56.20;;;;;;1572341;73;787;-59
2023/04/27 04:52:00;;;;;;;;;;;21.80;56.10;;;;;;1590619;73;767;-60
2023/04/27 04:54:02;;;;;;;;;;;21.80;56.00;;;;;;1583307;73;1937;-59
2023/04/27 04:56:13;;;;;;;;;;;21.80;55.90;;;;;;1582271;73;1143;-60
2023/04/27 04:58:15;;;;;;;;;;;21.80;56.20;;;;;;1579082;73;675;-60
2023/04/27 05:00:17;;;;;;;;;;;21.80;56.10;;;;;;1577111;73;780;-60
2023/04/27 05:02:19;;;;;;;;;;;21.70;56.20;;;;;;1592662;73;757;-60
2023/04/27 05:04:21;;;;;;;;;;;21.70;56.50;;;;;;1579540;73;704;-59
2023/04/27 05:06:23;;;;;;;;;;;21.80;56.60;;;;;;1595539;73;1136;-59
2023/04/27 05:08:25;;;;;;;;;;;21.80;56.80;;;;;;1582728;73;1435;-59
2023/04/27 05:10:27;;;;;;;;;;;21.80;57.00;;;;;;1585308;73;672;-60
2023/04/27 05:12:29;;;;;;;;;;;21.80;57.00;;;;;;1583883;73;730;-59
2023/04/27 05:14:31;;;;;;;;;;;21.80;57.00;;;;;;1576056;73;1937;-59
2023/04/27 05:16:33;;;;;;;;;;;21.80;57.00;;;;;;1585059;73;1215;-59
2023/04/27 05:18:35;;;;;;;;;;;21.80;57.00;;;;;;1580744;73;764;-59
2023/04/27 05:20:37;;;;;;;;;;;21.80;56.90;;;;;;1589417;73;775;-59
2023/04/27 05:22:39;;;;;;;;;;;21.80;57.00;;;;;;1590237;73;1388;-60
2023/04/27 05:24:41;;;;;;;;;;;21.80;57.00;;;;;;1591348;73;1166;-60
2023/04/27 05:26:43;;;;;;;;;;;21.80;56.90;;;;;;1581257;73;763;-60
2023/04/27 05:28:46;;;;;;;;;;;21.80;56.80;;;;;;1588728;73;744;-59
2023/04/27 05:30:47;;;;;;;;;;;21.90;56.90;;;;;;1593088;73;773;-58
2023/04/27 05:32:49;;;;;;;;;;;21.80;56.80;;;;;;1582909;73;631;-58
2023/04/27 05:34:51;;;;;;;;;;;21.80;56.90;;;;;;1581776;74;1945;-58
2023/04/27 05:36:53;;;;;;;;;;;21.90;57.30;;;;;;1587210;73;1422;-58
2023/04/27 05:38:55;;;;;;;;;;;21.80;57.10;;;;;;1587475;73;668;-57
2023/04/27 05:40:57;;;;;;;;;;;21.90;57.30;;;;;;1574465;73;758;-57
2023/04/27 05:43:02;;;;;;;;;;;21.90;57.10;;;;;;1589833;73;768;-58
2023/04/27 05:45:03;;;;;;;;;;;21.90;57.20;;;;;;1588523;73;1138;-58
2023/04/27 05:47:04;;;;;;;;;;;21.90;57.10;;;;;;1588474;73;761;-59
2023/04/27 05:49:06;;;;;;;;;;;21.90;57.10;;;;;;1593598;73;762;-59
2023/04/27 05:51:08;;;;;;;;;;;21.90;57.20;;;;;;1583269;73;1427;-58
2023/04/27 05:53:10;;;;;;;;;;;21.90;57.20;;;;;;1586080;73;764;-59
2023/04/27 05:55:12;;;;;;;;;;;21.90;57.10;;;;;;1581797;73;1937;-58
2023/04/27 05:57:14;;;;;;;;;;;21.90;57.10;;;;;;1574730;73;778;-58
2023/04/27 05:59:16;;;;;;;;;;;21.90;57.10;;;;;;1586195;73;791;-58
2023/04/27 06:01:18;;;;;;;;;;;21.90;57.20;;;;;;1582148;73;757;-58
2023/04/27 06:03:20;;;;;;;;;;;21.90;57.20;;;;;;1593636;73;768;-59
2023/04/27 06:05:22;;;;;;;;;;;21.90;57.10;;;;;;1587312;73;1440;-59
2023/04/27 06:07:23;;;;;;;;;;;22.00;57.20;;;;;;1587938;73;640;-58
2023/04/27 06:09:25;;;;;;;;;;;21.90;57.10;;;;;;1595159;73;752;-58
2023/04/27 06:11:27;;;;;;;;;;;22.00;57.10;;;;;;1596021;73;825;-58
2023/04/27 06:13:31;;;;;;;;;;;21.90;57.20;;;;;;1585114;73;779;-58
2023/04/27 06:15:32;;;;;;;;;;;21.90;57.10;;;;;;1588320;73;1925;-58
2023/04/27 06:17:37;;;;;;;;;;;21.90;57.10;;;;;;1584229;73;773;-59
2023/04/27 06:19:39;;;;;;;;;;;21.90;57.10;;;;;;1583147;73;1677;-60
2023/04/27 06:21:41;;;;;;;;;;;22.00;57.10;;;;;;1584005;73;773;-60
2023/04/27 06:23:43;;;;;;;;;;;21.90;57.10;;;;;;1593104;73;755;-59
2023/04/27 06:25:45;;;;;;;;;;;22.00;56.90;;;;;;1596688;73;1162;-59
2023/04/27 06:27:46;;;;;;;;;;;22.00;57.20;;;;;;1597417;73;635;-59
2023/04/27 06:29:48;;;;;;;;;;;22.00;57.20;;;;;;1596134;73;772;-59
2023/04/27 06:31:50;;;;;;;;;;;22.00;57.10;;;;;;1592194;73;1414;-60
2023/04/27 06:33:52;;;;;;;;;;;22.00;57.00;;;;;;1578651;73;790;-60
2023/04/27 06:35:54;;;;;;;;;;;22.00;56.80;;;;;;1589452;73;1184;-59
2023/04/27 06:37:57;;;;;;;;;;;22.00;56.70;;;;;;1589743;73;820;-58
2023/04/27 06:39:59;;;;;;;;;;;22.10;56.50;;;;;;1592660;73;824;-59
2023/04/27 06:42:03;;;;;;;;;;;22.10;56.30;;;;;;1584104;74;793;-59
2023/04/27 06:44:05;;;;;;;;;;;22.10;56.20;;;;;;1584477;73;740;-58
2023/04/27 06:46:07;;;;;;;;;;;22.20;56.10;;;;;;1583995;73;1464;-58
2023/04/27 06:48:09;;;;;;;;;;;22.10;56.30;;;;;;1592017;73;802;-58
2023/04/27 06:50:11;;;;;;;;;;;22.10;56.20;;;;;;1581743;73;757;-59
2023/04/27 06:52:13;;;;;;;;;;;22.20;56.30;;;;;;1581901;73;778;-58
2023/04/27 06:54:15;;;;;;;;;;;22.10;56.20;;;;;;1577052;73;1930;-58
2023/04/27 06:56:17;;;;;;;;;;;22.10;56.10;;;;;;1582869;73;1153;-58
2023/04/27 06:58:19;;;;;;;;;;;22.20;56.10;;;;;;1584144;73;824;-58
2023/04/27 07:00:21;;;;;;;;;;;22.10;56.30;;;;;;1590143;73;1427;-59
2023/04/27 07:02:22;;;;;;;;;;;22.10;56.30;;;;;;1595186;73;772;-58
2023/04/27 07:04:24;;;;;;;;;;;22.10;56.40;;;;;;1576405;73;758;-59
2023/04/27 07:06:27;;;;;;;;;;;22.20;56.10;;;;;;1579866;73;1123;-58
2023/04/27 07:08:29;;;;;;;;;;;22.20;55.90;;;;;;1579160;73;767;-59
2023/04/27 07:10:31;;;;;;;;;;;22.20;55.80;;;;;;1579531;73;776;-60
2023/04/27 07:12:33;;;;;;;;;;;22.20;55.60;;;;;;1583628;73;679;-60
2023/04/27 07:14:35;;;;;;;;;;;22.40;55.60;;;;;;1588070;73;1921;-59
2023/04/27 07:16:36;;;;;;;;;;;22.30;55.50;;;;;;1583223;73;749;-60
2023/04/27 07:18:38;;;;;;;;;;;22.40;55.40;;;;;;1578719;73;786;-59
2023/04/27 07:20:41;;;;;;;;;;;22.40;55.30;;;;;;1586192;73;733;-58
2023/04/27 07:22:43;;;;;;;;;;;22.40;55.20;;;;;;1600091;73;765;-59
2023/04/27 07:24:45;;;;;;;;;;;22.30;55.00;;;;;;1584105;73;1174;-59
2023/04/27 07:26:47;;;;;;;;;;;22.30;55.10;;;;;;1586817;73;787;-58
2023/04/27 07:28:49;;;;;;;;;;;22.40;55.00;;;;;;1583849;73;1397;-59
2023/04/27 07:30:51;;;;;;;;;;;22.40;55.00;;;;;;1593199;73;764;-59
2023/04/27 07:32:53;;;;;;;;;;;22.40;55.10;;;;;;1588798;74;662;-59
2023/04/27 07:34:55;;;;;;;;;;;22.40;55.10;;;;;;1585784;73;1946;-60
2023/04/27 07:36:57;;;;;;;;;;;22.30;55.00;;;;;;1586645;73;646;-59
2023/04/27 07:38:59;;;;;;;;;;;22.40;55.00;;;;;;1588120;73;764;-59
2023/04/27 07:41:01;;;;;;;;;;;22.50;55.10;;;;;;1591224;73;722;-60
2023/04/27 07:43:04;;;;;;;;;;;22.40;54.90;;;;;;1592391;73;1419;-59
2023/04/27 07:45:06;;;;;;;;;;;22.40;55.00;;;;;;1585320;73;1133;-59
2023/04/27 07:47:08;;;;;;;;;;;22.40;55.00;;;;;;1590529;73;703;-60
2023/04/27 07:49:12;;;;;;;;;;;22.40;55.00;;;;;;1577451;73;800;-59
2023/04/27 07:51:15;;;;;;;;;;;22.40;54.90;;;;;;1593824;73;1572;-60
2023/04/27 07:53:17;;;;;;;;;;;22.30;55.00;;;;;;1590683;73;711;-59
2023/04/27 07:55:20;;;;;;;;;;;22.40;55.00;;;;;;1592545;73;1943;-59
2023/04/27 07:57:22;;;;;;;;;;;22.40;54.90;;;;;;1593339;74;1430;-59
2023/04/27 07:59:24;;;;;;;;;;;22.40;54.80;;;;;;1588516;73;668;-60
2023/04/27 08:01:26;;;;;;;;;;;22.40;54.80;;;;;;1592490;73;811;-59
2023/04/27 08:03:28;;;;;;;;;;;22.40;54.80;;;;;;1595824;73;738;-58
2023/04/27 08:05:30;;;;;;;;;;;22.50;55.50;;;;;;1596942;73;1164;-60
2023/04/27 08:07:33;;;;;;;;;;;22.30;55.60;;;;;;1582402;73;759;-59
2023/04/27 08:09:34;;;;;;;;;;;22.30;55.80;;;;;;1588098;73;770;-60
2023/04/27 08:11:36;;;;;;;;;;;22.30;55.90;;;;;;1593205;73;1367;-59
2023/04/27 08:13:38;;;;;;;;;;;22.20;55.80;;;;;;1593197;73;706;-59
2023/04/27 08:15:40;;;;;;;;;;;22.30;55.80;;;;;;1587854;73;1941;-60
2023/04/27 08:17:42;;;;;;;;;;;22.30;55.50;;;;;;1582272;73;540;-58
2023/04/27 08:19:44;;;;;;;;;;;22.40;54.90;;;;;;1582388;73;760;-59
2023/04/27 08:21:46;;;;;;;;;;;22.40;54.20;;;;;;1592524;73;767;-60
2023/04/27 08:23:48;;;;;;;;;;;22.40;53.60;;;;;;1576078;73;760;-59
2023/04/27 08:25:50;;;;;;;;;;;22.30;53.30;;;;;;1582685;73;1429;-59
2023/04/27 08:27:52;;;;;;;;;;;22.30;52.80;;;;;;1584054;73;786;-59
2023/04/27 08:29:54;;;;;;;;;;;22.30;52.50;;;;;;1589012;73;1399;-58
2023/04/27 08:31:57;;;;;;;;;;;22.40;52.10;;;;;;1588004;73;1185;-58
2023/04/27 08:33:59;;;;;;;;;;;22.30;51.90;;;;;;1583215;73;1349;-59
2023/04/27 08:36:01;;;;;;;;;;;22.40;51.70;;;;;;1585913;73;1942;-58
2023/04/27 08:38:03;;;;;;;;;;;22.50;51.50;;;;;;1590913;73;1422;-58
2023/04/27 08:40:06;;;;;;;;;;;22.40;50.80;;;;;;1586163;73;1368;-58
2023/04/27 08:42:11;;;;;;;;;;;22.40;50.70;;;;;;1587194;73;1354;-59
2023/04/27 08:44:13;;;;;;;;;;;22.50;50.70;;;;;;1588064;73;1435;-59
2023/04/27 08:46:19;;;;;;;;;;;22.40;50.40;;;;;;1599671;73;1360;-58
2023/04/27 08:48:21;;;;;;;;;;;22.40;50.20;;;;;;1578375;73;1075;-59
2023/04/27 08:50:23;;;;;;;;;;;22.40;50.00;;;;;;1587662;73;1699;-58
2023/04/27 08:52:25;;;;;;;;;;;22.40;49.90;;;;;;1591070;73;1410;-59
2023/04/27 08:54:27;;;;;;;;;;;22.50;50.20;;;;;;1585142;73;1420;-59
2023/04/27 08:56:29;;;;;;;;;;;22.50;49.50;;;;;;1580362;73;1948;-58
2023/04/27 08:58:38;;;;;;;;;;;22.60;49.30;;;;;;1585842;73;1388;-59
2023/04/27 09:00:44;;;;;;;;;;;22.60;49.40;;;;;;1583827;73;1357;-59
2023/04/27 09:02:46;;;;;;;;;;;22.60;49.40;;;;;;1584351;73;1359;-58
2023/04/27 09:04:47;;;;;;;;;;;22.50;48.90;;;;;;1586704;73;1383;-59
2023/04/27 09:06:49;;;;;;;;;;;22.50;48.50;;;;;;1584926;73;1368;-59
2023/04/27 09:08:51;;;;;;;;;;;22.50;48.30;;;;;;1587809;73;1335;-59
2023/04/27 09:10:56;;;;;;;;;;;22.50;48.40;;;;;;1576091;73;1435;-58
2023/04/27 09:12:58;;;;;;;;;;;22.50;47.80;;;;;;1587179;73;1370;-60
2023/04/27 09:15:05;;;;;;;;;;;22.50;48.40;;;;;;1589179;73;1923;-58
2023/04/27 09:17:06;;;;;;;;;;;22.50;48.90;;;;;;1573473;73;1326;-60
2023/04/27 09:19:08;;;;;;;;;;;22.60;48.70;;;;;;1585964;73;1371;-60
2023/04/27 09:21:10;;;;;;;;;;;22.60;48.60;;;;;;1578538;73;1431;-59
2023/04/27 09:23:14;;;;;;;;;;;22.60;48.90;;;;;;1580552;73;1313;-59
2023/04/27 09:25:22;;;;;;;;;;;22.60;48.60;;;;;;1582275;73;1786;-58
2023/04/27 09:27:24;;;;;;;;;;;22.60;48.60;;;;;;1585811;73;1119;-59
2023/04/27 09:29:33;;;;;;;;;;;22.60;48.90;;;;;;1576811;73;1075;-59
2023/04/27 09:31:35;;;;;;;;;;;22.70;48.40;;;;;;1582096;73;1039;-60
2023/04/27 09:33:37;;;;;;;;;;;22.60;48.50;;;;;;1590764;73;1375;-60
2023/04/27 09:35:39;;;;;;;;;;;22.60;48.20;;;;;;1588596;73;1959;-59
2023/04/27 09:37:41;;;;;;;;;;;22.60;48.10;;;;;;1591156;73;1430;-60
2023/04/27 09:39:43;;;;;;;;;;;22.60;48.20;;;;;;1592720;73;1351;-60
2023/04/27 09:41:45;;;;;;;;;;;22.60;48.00;;;;;;1588081;73;1451;-60
2023/04/27 09:43:47;;;;;;;;;;;22.50;47.70;;;;;;1585555;73;1375;-60
2023/04/27 09:45:49;;;;;;;;;;;22.50;47.10;;;;;;1589531;74;1241;-59
2023/04/27 09:47:51;;;;;;;;;;;22.50;47.10;;;;;;1573470;73;1246;-59
2023/04/27 09:49:53;;;;;;;;;;;22.50;47.00;;;;;;1584238;73;1374;-60
2023/04/27 09:51:57;;;;;;;;;;;22.50;47.00;;;;;;1594522;73;1198;-59
2023/04/27 09:54:00;;;;;;;;;;;22.50;46.70;;;;;;1584865;73;1365;-59
2023/04/27 09:56:09;;;;;;;;;;;22.40;46.80;;;;;;1580266;73;1939;-60
2023/04/27 09:58:19;;;;;;;;;;;22.40;46.70;;;;;;1591302;73;1373;-59
2023/04/27 10:00:31;;;;;;;;;;;22.40;46.70;;;;;;1578607;73;1813;-59
2023/04/27 10:02:35;;;;;;;;;;;22.40;46.40;;;;;;1589021;73;1659;-59
2023/04/27 10:04:53;;;;;;;;;;;22.40;46.50;;;;;;1591540;73;1619;-59
2023/04/27 10:07:07;;;;;;;;;;;22.40;46.60;;;;;;1590178;73;1508;-60
2023/04/27 10:09:09;;;;;;;;;;;22.40;46.50;;;;;;1580870;73;1201;-59
2023/04/27 10:11:18;;;;;;;;;;;22.30;46.50;;;;;;1585597;73;1340;-59
2023/04/27 10:13:23;;;;;;;;;;;22.40;46.30;;;;;;1582600;73;2109;-59
2023/04/27 10:15:26;;;;;;;;;;;22.40;46.40;;;;;;1583339;73;1931;-59
2023/04/27 10:17:29;;;;;;;;;;;22.40;46.50;;;;;;1581596;73;1425;-59
2023/04/27 10:19:31;;;;;;;;;;;22.40;46.40;;;;;;1580511;73;1393;-59
2023/04/27 10:21:32;;;;;;;;;;;22.40;46.50;;;;;;1578148;73;1134;-61
2023/04/27 10:23:36;;;;;;;;;;;22.40;46.50;;;;;;1594889;73;1718;-59
2023/04/27 10:25:39;;;;;;;;;;;22.40;46.00;;;;;;1593117;73;1642;-58
2023/04/27 10:27:41;;;;;;;;;;;22.30;46.30;;;;;;1586518;73;1425;-59
2023/04/27 10:29:43;;;;;;;;;;;22.30;46.40;;;;;;1582659;73;1411;-59
2023/04/27 10:31:47;;;;;;;;;;;22.40;46.30;;;;;;1582673;73;1415;-59
2023/04/27 10:33:48;;;;;;;;;;;22.30;46.10;;;;;;1587917;73;1337;-59
2023/04/27 10:35:54;;;;;;;;;;;22.30;46.30;;;;;;1588780;73;1941;-59
2023/04/27 10:37:58;;;;;;;;;;;22.40;46.30;;;;;;1584760;73;784;-59
2023/04/27 10:40:03;;;;;;;;;;;22.30;46.10;;;;;;1577412;73;1577;-58
2023/04/27 10:42:05;;;;;;;;;;;22.30;46.30;;;;;;1595646;73;1430;-59
2023/04/27 10:44:13;;;;;;;;;;;22.40;46.20;;;;;;1585653;73;1442;-58
2023/04/27 10:46:15;;;;;;;;;;;22.40;46.30;;;;;;1591507;73;1419;-59
2023/04/27 10:48:17;;;;;;;;;;;22.30;46.30;;;;;;1591864;73;1382;-59
2023/04/27 10:50:19;;;;;;;;;;;22.20;46.20;;;;;;1581890;73;1211;-58
2023/04/27 10:52:21;;;;;;;;;;;22.20;46.00;;;;;;1587395;73;1373;-59
2023/04/27 10:54:24;;;;;;;;;;;22.30;46.20;;;;;;1586711;73;1638;-59
2023/04/27 10:56:26;;;;;;;;;;;22.20;46.00;;;;;;1587226;73;1945;-59
2023/04/27 10:58:28;;;;;;;;;;;22.20;46.00;;;;;;1589017;73;1365;-58
2023/04/27 11:00:35;;;;;;;;;;;22.20;46.00;;;;;;1587335;73;1425;-59
2023/04/27 11:02:37;;;;;;;;;;;22.20;46.00;;;;;;1587585;73;1363;-59
2023/04/27 11:04:40;;;;;;;;;;;22.20;46.00;;;;;;1584647;73;1134;-60
2023/04/27 11:06:42;;;;;;;;;;;22.20;45.80;;;;;;1582969;74;1479;-60
2023/04/27 11:08:44;;;;;;;;;;;22.20;46.50;;;;;;1571002;73;1387;-60
2023/04/27 11:10:48;;;;;;;;;;;22.10;46.80;;;;;;1576985;74;1083;-60
2023/04/27 11:12:50;;;;;;;;;;;22.20;46.60;;;;;;1576589;73;1417;-60
2023/04/27 11:14:54;;;;;;;;;;;22.20;47.00;;;;;;1588930;73;1416;-60
2023/04/27 11:16:55;;;;;;;;;;;22.20;47.30;;;;;;1581396;73;1943;-60
2023/04/27 11:18:59;;;;;;;;;;;22.20;47.30;;;;;;1585660;73;1430;-60
2023/04/27 11:21:07;;;;;;;;;;;22.20;47.30;;;;;;1576289;73;1796;-60
2023/04/27 11:23:11;;;;;;;;;;;22.20;47.30;;;;;;1580614;73;1262;-60
2023/04/27 11:25:13;;;;;;;;;;;22.20;47.40;;;;;;1583683;73;1435;-60
2023/04/27 11:27:16;;;;;;;;;;;22.20;47.20;;;;;;1588517;73;1380;-60
2023/04/27 11:29:18;;;;;;;;;;;22.20;47.20;;;;;;1585414;73;1439;-60
2023/04/27 11:31:20;;;;;;;;;;;22.20;47.20;;;;;;1583271;73;1363;-60
2023/04/27 11:33:22;;;;;;;;;;;22.30;47.50;;;;;;1577949;73;1377;-60
2023/04/27 11:35:33;;;;;;;;;;;22.20;47.50;;;;;;1585041;73;1378;-60
2023/04/27 11:37:35;;;;;;;;;;;22.20;47.60;;;;;;1585415;73;2005;-60
2023/04/27 11:39:37;;;;;;;;;;;22.30;47.80;;;;;;1583849;73;1322;-60
2023/04/27 11:41:45;;;;;;;;;;;22.30;47.90;;;;;;1585252;73;1429;-60
2023/04/27 11:43:48;;;;;;;;;;;22.30;47.90;;;;;;1586094;73;1574;-60
2023/04/27 11:45:47;;;;;;;;;;;22.30;48.00;;;;;;1583719;73;1494;-60
2023/04/27 11:47:48;;;;;;;;;;;22.30;48.10;;;;;;1591348;73;1470;-60
2023/04/27 11:49:51;;;;;;;;;;;22.30;48.10;;;;;;1584780;73;1398;-60
2023/04/27 11:51:53;;;;;;;;;;;22.30;48.10;;;;;;1587007;73;1381;-60
2023/04/27 11:53:55;;;;;;;;;;;22.30;48.20;;;;;;1584150;73;1314;-60
2023/04/27 11:55:58;;;;;;;;;;;22.30;48.20;;;;;;1584034;73;1950;-60
2023/04/27 11:58:00;;;;;;;;;;;22.30;48.30;;;;;;1581091;73;1359;-59
2023/04/27 12:00:13;;;;;;;;;;;22.30;48.40;;;;;;1585789;73;1455;-60
2023/04/27 12:02:06;;;;;;;;;;;22.30;48.40;;;;;;1585758;73;1570;-60
2023/04/27 12:04:08;;;;;;;;;;;22.40;48.50;;;;;;1593735;73;1445;-60
2023/04/27 12:06:10;;;;;;;;;;;22.30;48.60;;;;;;1578353;73;1377;-59
2023/04/27 12:08:12;;;;;;;;;;;22.30;48.60;;;;;;1574695;73;1222;-60